Terminal Aerodrome Forecast
Issued by NWS

Home | Current Version | Previous Version | Text Only | Print | Product List | Glossary On
Versions: 1 2 3 4 5 6 7 8 9 10 11 12 13
000
FTAK31 PAFA 182339
TAFATA
TAF
PATA 182339Z 1900/1924 10007KT P6SM VCSH SCT050 BKN100 BKN150
     FM190600 05004KT P6SM SCT050 BKN120
     FM192000 10008KT P6SM SCT100=

USA.gov is the U.S. government's official web portal to all federal, state and local government web resources and services.